Frenchglen, Oregon
Current Conditions -  °F | °C
As of 9:53 PM on Friday 19 Dec 2014 (Local Time) from KBNO Reporting Station
Broken Clouds Broken Clouds  
Wind Chill: 25°   Ceiling: 2300
Heat Index: 33°   Visibility: 10mi
Dew Point: 31°   Wind: 9mph
Humidity: 92%   Direction: 40°NE
Pressure: 30.03"   Gusts: NA
Location:  42.83°N, 118.92°W
Report Text: KBNO 200553Z AUTO 04008KT 10SM BKN023 BKN075 01/M01 A3003 RMK AO2 UPE02FZRAB02E13SNB13E30 SLP185 P0001 60001 I1001 I6001 T00061006 10039 21006 58000
Loading
Personal Weather Stations






























Interactive Weather Map New forecast layout! Learn more

10-Day Weather Forecast

Advertisements
Track Severe Weather on mobile